sensor_id;sensor_type;location;lat;lon;timestamp;pressure;altitude;pressure_sealevel;temperature;humidity
75447;BME280;64024;55.820;37.574;2024-02-14T00:00:58;99678.13;;;17.59;34.13
75447;BME280;64024;55.820;37.574;2024-02-14T00:03:24;99676.41;;;17.53;34.26
75447;BME280;64024;55.820;37.574;2024-02-14T00:05:50;99675.16;;;17.44;34.25
75447;BME280;64024;55.820;37.574;2024-02-14T00:08:17;99670.78;;;17.38;34.22
75447;BME280;64024;55.820;37.574;2024-02-14T00:10:43;99668.22;;;17.31;34.23
75447;BME280;64024;55.820;37.574;2024-02-14T00:13:10;99671.31;;;17.23;34.14
75447;BME280;64024;55.820;37.574;2024-02-14T00:15:37;99667.13;;;17.15;34.34
75447;BME280;64024;55.820;37.574;2024-02-14T00:18:03;99675.34;;;17.09;34.37
75447;BME280;64024;55.820;37.574;2024-02-14T00:20:30;99682.72;;;17.02;34.54
75447;BME280;64024;55.820;37.574;2024-02-14T00:22:56;99674.00;;;16.95;34.34
75447;BME280;64024;55.820;37.574;2024-02-14T00:25:22;99682.19;;;16.88;34.42
75447;BME280;64024;55.820;37.574;2024-02-14T00:27:48;99678.81;;;16.81;34.52
75447;BME280;64024;55.820;37.574;2024-02-14T00:30:14;99677.06;;;16.75;34.49
75447;BME280;64024;55.820;37.574;2024-02-14T00:32:41;99675.31;;;16.69;34.68
75447;BME280;64024;55.820;37.574;2024-02-14T00:35:07;99674.63;;;16.61;34.79
75447;BME280;64024;55.820;37.574;2024-02-14T00:37:33;99683.66;;;16.55;34.56
75447;BME280;64024;55.820;37.574;2024-02-14T00:39:59;99681.06;;;16.49;34.53
75447;BME280;64024;55.820;37.574;2024-02-14T00:42:25;99680.16;;;16.43;34.58
75447;BME280;64024;55.820;37.574;2024-02-14T00:44:52;99685.41;;;16.38;34.53
75447;BME280;64024;55.820;37.574;2024-02-14T00:47:18;99689.84;;;16.32;34.65
75447;BME280;64024;55.820;37.574;2024-02-14T00:49:44;99694.28;;;16.27;34.69
75447;BME280;64024;55.820;37.574;2024-02-14T00:52:09;99689.84;;;16.21;35.10
75447;BME280;64024;55.820;37.574;2024-02-14T00:54:35;99698.84;;;16.14;35.00
75447;BME280;64024;55.820;37.574;2024-02-14T00:57:01;99690.88;;;16.08;34.86
75447;BME280;64024;55.820;37.574;2024-02-14T00:59:27;99693.47;;;16.03;35.23
75447;BME280;64024;55.820;37.574;2024-02-14T01:01:53;99697.91;;;15.97;35.19
75447;BME280;64024;55.820;37.574;2024-02-14T01:04:19;99706.03;;;15.90;35.27
75447;BME280;64024;55.820;37.574;2024-02-14T01:06:45;99704.28;;;15.84;35.10
75447;BME280;64024;55.820;37.574;2024-02-14T01:09:10;99699.59;;;15.80;35.09
75447;BME280;64024;55.820;37.574;2024-02-14T01:11:37;99704.03;;;15.74;34.77
75447;BME280;64024;55.820;37.574;2024-02-14T01:14:04;99709.50;;;15.68;35.34
75447;BME280;64024;55.820;37.574;2024-02-14T01:16:30;99710.13;;;15.63;35.30
75447;BME280;64024;55.820;37.574;2024-02-14T01:18:56;99709.19;;;15.57;35.22
75447;BME280;64024;55.820;37.574;2024-02-14T01:21:22;99703.72;;;15.52;35.26
75447;BME280;64024;55.820;37.574;2024-02-14T01:23:48;99699.25;;;15.46;35.50
75447;BME280;64024;55.820;37.574;2024-02-14T01:26:14;99711.47;;;15.42;35.35
75447;BME280;64024;55.820;37.574;2024-02-14T01:28:40;99712.16;;;15.37;35.34
75447;BME280;64024;55.820;37.574;2024-02-14T01:31:05;99707.50;;;15.33;35.73
75447;BME280;64024;55.820;37.574;2024-02-14T01:33:31;99712.72;;;15.28;35.38
75447;BME280;64024;55.820;37.574;2024-02-14T01:35:58;99716.88;;;15.24;35.30
75447;BME280;64024;55.820;37.574;2024-02-14T01:38:24;99721.31;;;15.18;35.58
75447;BME280;64024;55.820;37.574;2024-02-14T01:40:50;99717.44;;;15.14;35.41
75447;BME280;64024;55.820;37.574;2024-02-14T01:43:16;99726.97;;;15.10;35.55
75447;BME280;64024;55.820;37.574;2024-02-14T01:45:42;99725.78;;;15.06;35.40
75447;BME280;64024;55.820;37.574;2024-02-14T01:48:08;99729.13;;;15.01;35.55
75447;BME280;64024;55.820;37.574;2024-02-14T01:50:35;99726.09;;;14.98;35.54
75447;BME280;64024;55.820;37.574;2024-02-14T01:53:01;99732.94;;;14.94;35.60
75447;BME280;64024;55.820;37.574;2024-02-14T01:55:28;99730.94;;;14.89;36.01
75447;BME280;64024;55.820;37.574;2024-02-14T01:57:54;99724.38;;;14.85;35.42
75447;BME280;64024;55.820;37.574;2024-02-14T02:00:21;99736.34;;;14.82;35.37
75447;BME280;64024;55.820;37.574;2024-02-14T02:02:47;99739.47;;;14.79;35.63
75447;BME280;64024;55.820;37.574;2024-02-14T02:05:13;99744.00;;;14.79;35.61
75447;BME280;64024;55.820;37.574;2024-02-14T02:07:39;99750.16;;;14.79;35.96
75447;BME280;64024;55.820;37.574;2024-02-14T02:10:11;99746.25;;;14.82;35.81
75447;BME280;64024;55.820;37.574;2024-02-14T02:12:37;99748.25;;;14.86;35.93
75447;BME280;64024;55.820;37.574;2024-02-14T02:15:07;99740.16;;;14.93;36.16
75447;BME280;64024;55.820;37.574;2024-02-14T02:17:39;99745.41;;;15.00;35.96
75447;BME280;64024;55.820;37.574;2024-02-14T02:20:05;99750.44;;;15.08;35.85
75447;BME280;64024;55.820;37.574;2024-02-14T02:22:33;99752.81;;;15.16;36.00
75447;BME280;64024;55.820;37.574;2024-02-14T02:25:02;99757.44;;;15.27;36.34
75447;BME280;64024;55.820;37.574;2024-02-14T02:27:33;99745.72;;;15.40;35.83
75447;BME280;64024;55.820;37.574;2024-02-14T02:30:06;99752.50;;;15.54;35.72
75447;BME280;64024;55.820;37.574;2024-02-14T02:32:34;99749.47;;;15.69;35.59
75447;BME280;64024;55.820;37.574;2024-02-14T02:35:00;99759.72;;;15.84;35.64
75447;BME280;64024;55.820;37.574;2024-02-14T02:37:28;99747.53;;;16.00;35.29
75447;BME280;64024;55.820;37.574;2024-02-14T02:39:57;99755.16;;;16.14;35.15
75447;BME280;64024;55.820;37.574;2024-02-14T02:42:23;99756.31;;;16.30;35.03
75447;BME280;64024;55.820;37.574;2024-02-14T02:44:50;99765.75;;;16.45;34.85
75447;BME280;64024;55.820;37.574;2024-02-14T02:47:16;99760.75;;;16.60;34.78
75447;BME280;64024;55.820;37.574;2024-02-14T02:49:43;99755.72;;;16.75;34.73
75447;BME280;64024;55.820;37.574;2024-02-14T02:52:10;99759.34;;;16.93;34.68
75447;BME280;64024;55.820;37.574;2024-02-14T02:54:37;99760.69;;;17.07;34.63
75447;BME280;64024;55.820;37.574;2024-02-14T02:57:07;99755.38;;;17.24;34.28
75447;BME280;64024;55.820;37.574;2024-02-14T02:59:34;99762.94;;;17.38;34.34
75447;BME280;64024;55.820;37.574;2024-02-14T03:02:01;99764.75;;;17.50;34.40
75447;BME280;64024;55.820;37.574;2024-02-14T03:04:28;99760.53;;;17.54;34.33
75447;BME280;64024;55.820;37.574;2024-02-14T03:06:55;99762.41;;;17.53;34.45
75447;BME280;64024;55.820;37.574;2024-02-14T03:09:21;99764.75;;;17.50;34.55
75447;BME280;64024;55.820;37.574;2024-02-14T03:11:47;99764.66;;;17.45;34.41
75447;BME280;64024;55.820;37.574;2024-02-14T03:14:14;99770.19;;;17.38;34.52
75447;BME280;64024;55.820;37.574;2024-02-14T03:16:40;99774.63;;;17.32;34.59
75447;BME280;64024;55.820;37.574;2024-02-14T03:19:06;99772.09;;;17.26;34.86
75447;BME280;64024;55.820;37.574;2024-02-14T03:21:32;99779.72;;;17.17;35.09
75447;BME280;64024;55.820;37.574;2024-02-14T03:24:02;99779.84;;;17.10;35.17
75447;BME280;64024;55.820;37.574;2024-02-14T03:26:31;99782.91;;;17.02;35.17
75447;BME280;64024;55.820;37.574;2024-02-14T03:29:00;99784.06;;;16.95;35.49
75447;BME280;64024;55.820;37.574;2024-02-14T03:31:26;99783.38;;;16.87;35.48
75447;BME280;64024;55.820;37.574;2024-02-14T03:33:51;99789.09;;;16.79;35.61
75447;BME280;64024;55.820;37.574;2024-02-14T03:36:19;99787.59;;;16.72;35.52
75447;BME280;64024;55.820;37.574;2024-02-14T03:38:45;99798.69;;;16.63;35.50
75447;BME280;64024;55.820;37.574;2024-02-14T03:41:12;99806.00;;;16.56;35.54
75447;BME280;64024;55.820;37.574;2024-02-14T03:43:40;99794.56;;;16.49;35.47
75447;BME280;64024;55.820;37.574;2024-02-14T03:46:06;99801.91;;;16.42;35.30
75447;BME280;64024;55.820;37.574;2024-02-14T03:48:32;99798.53;;;16.35;35.33
75447;BME280;64024;55.820;37.574;2024-02-14T03:50:58;99799.44;;;16.29;35.13
75447;BME280;64024;55.820;37.574;2024-02-14T03:53:23;99808.44;;;16.23;35.08
75447;BME280;64024;55.820;37.574;2024-02-14T03:55:49;99803.41;;;16.14;35.06
75447;BME280;64024;55.820;37.574;2024-02-14T03:58:15;99807.81;;;16.09;35.17
75447;BME280;64024;55.820;37.574;2024-02-14T04:00:49;99808.50;;;16.04;34.90
75447;BME280;64024;55.820;37.574;2024-02-14T04:03:16;99805.81;;;16.04;34.83
75447;BME280;64024;55.820;37.574;2024-02-14T04:05:42;99806.44;;;16.06;34.79
75447;BME280;64024;55.820;37.574;2024-02-14T04:08:08;99812.97;;;16.10;34.88
75447;BME280;64024;55.820;37.574;2024-02-14T04:10:36;99803.97;;;16.16;34.78
75447;BME280;64024;55.820;37.574;2024-02-14T04:13:03;99811.94;;;16.23;34.90
75447;BME280;64024;55.820;37.574;2024-02-14T04:15:30;99821.28;;;16.32;34.73
75447;BME280;64024;55.820;37.574;2024-02-14T04:17:56;99811.63;;;16.43;34.54
75447;BME280;64024;55.820;37.574;2024-02-14T04:20:22;99815.34;;;16.54;34.77
75447;BME280;64024;55.820;37.574;2024-02-14T04:22:47;99803.78;;;16.65;34.55
75447;BME280;64024;55.820;37.574;2024-02-14T04:25:13;99803.81;;;16.77;34.12
75447;BME280;64024;55.820;37.574;2024-02-14T04:27:39;99807.06;;;16.90;34.22
75447;BME280;64024;55.820;37.574;2024-02-14T04:30:05;99806.25;;;17.02;34.00
75447;BME280;64024;55.820;37.574;2024-02-14T04:32:31;99814.03;;;17.15;33.90
75447;BME280;64024;55.820;37.574;2024-02-14T04:34:57;99813.78;;;17.28;33.77
75447;BME280;64024;55.820;37.574;2024-02-14T04:37:24;99819.13;;;17.40;33.78
75447;BME280;64024;55.820;37.574;2024-02-14T04:39:50;99814.53;;;17.52;33.49
75447;BME280;64024;55.820;37.574;2024-02-14T04:42:15;99820.66;;;17.64;33.45
75447;BME280;64024;55.820;37.574;2024-02-14T04:44:41;99828.34;;;17.73;33.43
75447;BME280;64024;55.820;37.574;2024-02-14T04:47:07;99826.94;;;17.70;33.29
75447;BME280;64024;55.820;37.574;2024-02-14T04:49:35;99830.34;;;17.65;33.31
75447;BME280;64024;55.820;37.574;2024-02-14T04:52:01;99824.31;;;17.58;33.34
75447;BME280;64024;55.820;37.574;2024-02-14T04:54:27;99828.22;;;17.51;33.31
75447;BME280;64024;55.820;37.574;2024-02-14T04:56:54;99839.31;;;17.43;33.33
75447;BME280;64024;55.820;37.574;2024-02-14T04:59:19;99849.63;;;17.34;33.41
75447;BME280;64024;55.820;37.574;2024-02-14T05:01:45;99842.75;;;17.26;33.25
75447;BME280;64024;55.820;37.574;2024-02-14T05:04:11;99850.38;;;17.18;33.34
75447;BME280;64024;55.820;37.574;2024-02-14T05:06:38;99855.03;;;17.10;33.45
75447;BME280;64024;55.820;37.574;2024-02-14T05:09:05;99861.81;;;17.01;33.34
75447;BME280;64024;55.820;37.574;2024-02-14T05:11:31;99864.88;;;16.93;33.52
75447;BME280;64024;55.820;37.574;2024-02-14T05:13:57;99863.34;;;16.85;33.29
75447;BME280;64024;55.820;37.574;2024-02-14T05:16:22;99866.38;;;16.77;33.54
75447;BME280;64024;55.820;37.574;2024-02-14T05:18:48;99856.53;;;16.71;33.39
75447;BME280;64024;55.820;37.574;2024-02-14T05:21:14;99856.91;;;16.63;33.45
75447;BME280;64024;55.820;37.574;2024-02-14T05:23:40;99857.00;;;16.56;33.39
75447;BME280;64024;55.820;37.574;2024-02-14T05:26:06;99860.03;;;16.48;33.31
75447;BME280;64024;55.820;37.574;2024-02-14T05:28:32;99858.25;;;16.42;33.47
75447;BME280;64024;55.820;37.574;2024-02-14T05:30:59;99857.56;;;16.35;33.31
75447;BME280;64024;55.820;37.574;2024-02-14T05:33:25;99854.97;;;16.28;33.14
75447;BME280;64024;55.820;37.574;2024-02-14T05:35:52;99853.22;;;16.22;33.26
75447;BME280;64024;55.820;37.574;2024-02-14T05:38:18;99856.09;;;16.21;33.51
75447;BME280;64024;55.820;37.574;2024-02-14T05:40:47;99862.88;;;16.23;33.12
75447;BME280;64024;55.820;37.574;2024-02-14T05:43:13;99870.25;;;16.28;33.30
75447;BME280;64024;55.820;37.574;2024-02-14T05:45:39;99863.38;;;16.32;33.37
75447;BME280;64024;55.820;37.574;2024-02-14T05:48:05;99866.78;;;16.39;33.20
75447;BME280;64024;55.820;37.574;2024-02-14T05:50:31;99873.88;;;16.45;33.25
75447;BME280;64024;55.820;37.574;2024-02-14T05:52:58;99874.59;;;16.52;33.01
75447;BME280;64024;55.820;37.574;2024-02-14T05:55:24;99876.72;;;16.62;32.97
75447;BME280;64024;55.820;37.574;2024-02-14T05:57:51;99874.50;;;16.71;33.01
75447;BME280;64024;55.820;37.574;2024-02-14T06:00:20;99866.72;;;16.81;32.97
75447;BME280;64024;55.820;37.574;2024-02-14T06:02:47;99875.59;;;16.93;32.82
75447;BME280;64024;55.820;37.574;2024-02-14T06:05:13;99880.38;;;17.03;32.83
75447;BME280;64024;55.820;37.574;2024-02-14T06:07:40;99872.78;;;17.11;32.98
75447;BME280;64024;55.820;37.574;2024-02-14T06:10:06;99881.78;;;17.17;32.86
75447;BME280;64024;55.820;37.574;2024-02-14T06:12:33;99893.09;;;17.19;32.90
75447;BME280;64024;55.820;37.574;2024-02-14T06:14:59;99891.22;;;17.20;32.79
75447;BME280;64024;55.820;37.574;2024-02-14T06:17:25;99890.66;;;17.18;32.76
75447;BME280;64024;55.820;37.574;2024-02-14T06:19:54;99885.75;;;17.14;32.89
75447;BME280;64024;55.820;37.574;2024-02-14T06:22:21;99885.16;;;17.12;33.01
75447;BME280;64024;55.820;37.574;2024-02-14T06:24:47;99883.97;;;17.08;33.13
75447;BME280;64024;55.820;37.574;2024-02-14T06:27:16;99882.81;;;17.04;33.14
75447;BME280;64024;55.820;37.574;2024-02-14T06:29:42;99880.84;;;17.00;33.12
75447;BME280;64024;55.820;37.574;2024-02-14T06:32:08;99889.59;;;16.95;33.34
75447;BME280;64024;55.820;37.574;2024-02-14T06:34:34;99889.50;;;16.90;33.30
75447;BME280;64024;55.820;37.574;2024-02-14T06:37:00;99887.50;;;16.85;33.40
75447;BME280;64024;55.820;37.574;2024-02-14T06:39:25;99888.22;;;16.81;33.56
75447;BME280;64024;55.820;37.574;2024-02-14T06:41:51;99889.72;;;16.77;33.52
75447;BME280;64024;55.820;37.574;2024-02-14T06:44:17;99901.13;;;16.72;33.74
75447;BME280;64024;55.820;37.574;2024-02-14T06:46:44;99891.09;;;16.68;33.71
75447;BME280;64024;55.820;37.574;2024-02-14T06:49:09;99894.47;;;16.63;33.68
75447;BME280;64024;55.820;37.574;2024-02-14T06:51:35;99893.31;;;16.59;33.82
75447;BME280;64024;55.820;37.574;2024-02-14T06:54:01;99891.28;;;16.54;33.81
75447;BME280;64024;55.820;37.574;2024-02-14T06:56:26;99899.00;;;16.51;33.95
75447;BME280;64024;55.820;37.574;2024-02-14T06:58:52;99896.97;;;16.46;33.94
75447;BME280;64024;55.820;37.574;2024-02-14T07:01:26;99897.47;;;16.43;34.06
75447;BME280;64024;55.820;37.574;2024-02-14T07:03:52;99895.47;;;16.38;34.10
75447;BME280;64024;55.820;37.574;2024-02-14T07:06:18;99900.47;;;16.35;34.35
75447;BME280;64024;55.820;37.574;2024-02-14T07:11:29;99901.38;;;16.29;34.41
75447;BME280;64024;55.820;37.574;2024-02-14T07:13:55;99902.06;;;16.24;34.35
75447;BME280;64024;55.820;37.574;2024-02-14T07:16:21;99901.94;;;16.19;34.70
75447;BME280;64024;55.820;37.574;2024-02-14T07:18:47;99902.38;;;16.16;34.41
75447;BME280;64024;55.820;37.574;2024-02-14T07:21:13;99904.72;;;16.12;34.66
75447;BME280;64024;55.820;37.574;2024-02-14T07:23:38;99897.13;;;16.09;34.53
75447;BME280;64024;55.820;37.574;2024-02-14T07:26:04;99897.59;;;16.06;34.59
75447;BME280;64024;55.820;37.574;2024-02-14T07:28:30;99899.91;;;16.03;34.96
75447;BME280;64024;55.820;37.574;2024-02-14T07:30:57;99901.97;;;16.01;34.85
75447;BME280;64024;55.820;37.574;2024-02-14T07:33:23;99905.94;;;15.98;34.83
75447;BME280;64024;55.820;37.574;2024-02-14T07:35:49;99904.75;;;15.94;35.42
75447;BME280;64024;55.820;37.574;2024-02-14T07:38:15;99907.69;;;15.93;34.70
75447;BME280;64024;55.820;37.574;2024-02-14T07:40:42;99899.47;;;15.87;35.09
75447;BME280;64024;55.820;37.574;2024-02-14T07:43:07;99917.44;;;15.87;35.27
75447;BME280;64024;55.820;37.574;2024-02-14T07:45:33;99903.66;;;15.83;35.19
75447;BME280;64024;55.820;37.574;2024-02-14T07:47:59;99906.56;;;15.82;35.04
75447;BME280;64024;55.820;37.574;2024-02-14T07:50:25;99907.63;;;15.81;35.34
75447;BME280;64024;55.820;37.574;2024-02-14T07:52:50;99897.72;;;15.81;34.91
75447;BME280;64024;55.820;37.574;2024-02-14T07:55:16;99916.47;;;15.81;35.51
75447;BME280;64024;55.820;37.574;2024-02-14T07:57:42;99904.69;;;15.82;35.50
75447;BME280;64024;55.820;37.574;2024-02-14T08:00:09;99891.06;;;15.84;35.71
75447;BME280;64024;55.820;37.574;2024-02-14T08:02:36;99901.59;;;15.85;35.85
75447;BME280;64024;55.820;37.574;2024-02-14T08:05:02;99909.63;;;15.85;35.68
75447;BME280;64024;55.820;37.574;2024-02-14T08:07:30;99915.78;;;15.86;36.06
75447;BME280;64024;55.820;37.574;2024-02-14T08:09:56;99912.06;;;15.87;35.98
75447;BME280;64024;55.820;37.574;2024-02-14T08:12:22;99916.38;;;15.88;36.08
75447;BME280;64024;55.820;37.574;2024-02-14T08:14:50;99918.84;;;15.89;36.30
75447;BME280;64024;55.820;37.574;2024-02-14T08:17:15;99918.91;;;16.01;36.01
75447;BME280;64024;55.820;37.574;2024-02-14T08:19:41;99930.06;;;15.98;36.00
75447;BME280;64024;55.820;37.574;2024-02-14T08:22:07;99928.06;;;15.94;36.28
75447;BME280;64024;55.820;37.574;2024-02-14T08:24:33;99929.94;;;15.93;36.22
75447;BME280;64024;55.820;37.574;2024-02-14T08:26:59;99928.28;;;15.92;36.29
75447;BME280;64024;55.820;37.574;2024-02-14T08:29:25;99922.91;;;15.92;36.54
75447;BME280;64024;55.820;37.574;2024-02-14T08:31:50;99930.97;;;15.92;36.37
75447;BME280;64024;55.820;37.574;2024-02-14T08:34:16;99928.28;;;15.92;36.42
75447;BME280;64024;55.820;37.574;2024-02-14T08:36:42;99927.47;;;15.91;36.55
75447;BME280;64024;55.820;37.574;2024-02-14T08:39:09;99933.06;;;15.90;36.40
75447;BME280;64024;55.820;37.574;2024-02-14T08:41:38;99927.69;;;15.90;36.59
75447;BME280;64024;55.820;37.574;2024-02-14T08:44:05;99930.00;;;15.86;36.33
75447;BME280;64024;55.820;37.574;2024-02-14T08:46:31;99935.59;;;15.85;36.68
75447;BME280;64024;55.820;37.574;2024-02-14T08:48:58;99940.34;;;15.83;36.54
75447;BME280;64024;55.820;37.574;2024-02-14T08:51:24;99935.25;;;15.81;36.42
75447;BME280;64024;55.820;37.574;2024-02-14T08:53:50;99938.13;;;15.80;36.55
75447;BME280;64024;55.820;37.574;2024-02-14T08:56:20;99943.72;;;15.78;36.44
75447;BME280;64024;55.820;37.574;2024-02-14T08:58:46;99943.97;;;15.77;36.40
75447;BME280;64024;55.820;37.574;2024-02-14T09:01:12;99941.28;;;15.77;36.38
75447;BME280;64024;55.820;37.574;2024-02-14T09:03:38;99940.66;;;15.75;36.51
75447;BME280;64024;55.820;37.574;2024-02-14T09:06:04;99949.75;;;15.74;36.18
75447;BME280;64024;55.820;37.574;2024-02-14T09:08:29;99940.09;;;15.73;36.50
75447;BME280;64024;55.820;37.574;2024-02-14T09:10:56;99939.47;;;15.71;36.88
75447;BME280;64024;55.820;37.574;2024-02-14T09:13:24;99942.97;;;15.71;36.54
75447;BME280;64024;55.820;37.574;2024-02-14T09:15:49;99943.59;;;15.73;36.34
75447;BME280;64024;55.820;37.574;2024-02-14T09:18:16;99952.00;;;15.77;36.54
75447;BME280;64024;55.820;37.574;2024-02-14T09:20:44;99945.72;;;15.83;36.13
75447;BME280;64024;55.820;37.574;2024-02-14T09:23:12;99960.44;;;15.92;36.42
75447;BME280;64024;55.820;37.574;2024-02-14T09:25:39;99954.56;;;16.02;36.33
75447;BME280;64024;55.820;37.574;2024-02-14T09:28:05;99952.16;;;16.12;36.26
75447;BME280;64024;55.820;37.574;2024-02-14T09:30:32;99948.25;;;16.26;36.14
75447;BME280;64024;55.820;37.574;2024-02-14T09:32:58;99948.53;;;16.36;35.85
75447;BME280;64024;55.820;37.574;2024-02-14T09:35:24;99945.50;;;16.45;36.03
75447;BME280;64024;55.820;37.574;2024-02-14T09:37:50;99950.78;;;16.51;35.80
75447;BME280;64024;55.820;37.574;2024-02-14T09:40:16;99960.59;;;16.57;35.71
75447;BME280;64024;55.820;37.574;2024-02-14T09:45:17;99954.44;;;16.69;35.53
75447;BME280;64024;55.820;37.574;2024-02-14T09:47:45;99962.84;;;16.72;35.65
75447;BME280;64024;55.820;37.574;2024-02-14T09:50:12;99956.22;;;16.75;35.69
75447;BME280;64024;55.820;37.574;2024-02-14T09:52:38;99958.47;;;16.78;35.58
75447;BME280;64024;55.820;37.574;2024-02-14T09:55:05;99961.75;;;16.80;35.61
75447;BME280;64024;55.820;37.574;2024-02-14T09:57:32;99944.59;;;16.81;35.60
75447;BME280;64024;55.820;37.574;2024-02-14T10:00:00;99961.25;;;16.83;35.48
75447;BME280;64024;55.820;37.574;2024-02-14T10:02:30;99957.75;;;16.82;35.52
75447;BME280;64024;55.820;37.574;2024-02-14T10:04:56;99960.22;;;16.84;35.47
75447;BME280;64024;55.820;37.574;2024-02-14T10:07:22;99961.25;;;16.83;35.59
75447;BME280;64024;55.820;37.574;2024-02-14T10:12:32;99967.44;;;16.83;35.55
75447;BME280;64024;55.820;37.574;2024-02-14T10:14:57;99959.88;;;16.80;35.68
75447;BME280;64024;55.820;37.574;2024-02-14T10:17:23;99959.06;;;16.80;35.45
75447;BME280;64024;55.820;37.574;2024-02-14T10:19:59;99963.81;;;16.78;35.62
75447;BME280;64024;55.820;37.574;2024-02-14T10:22:32;99957.66;;;16.77;35.64
75447;BME280;64024;55.820;37.574;2024-02-14T10:24:57;99956.81;;;16.77;35.64
75447;BME280;64024;55.820;37.574;2024-02-14T10:27:23;99955.41;;;16.74;35.91
75447;BME280;64024;55.820;37.574;2024-02-14T10:29:50;99951.09;;;16.73;35.53
75447;BME280;64024;55.820;37.574;2024-02-14T10:32:16;99953.38;;;16.70;35.67
75447;BME280;64024;55.820;37.574;2024-02-14T10:34:43;99960.88;;;16.68;35.61
75447;BME280;64024;55.820;37.574;2024-02-14T10:37:13;99960.28;;;16.65;35.68
75447;BME280;64024;55.820;37.574;2024-02-14T10:39:41;99959.69;;;16.63;35.70
75447;BME280;64024;55.820;37.574;2024-02-14T10:42:07;99952.91;;;16.61;35.66
75447;BME280;64024;55.820;37.574;2024-02-14T10:44:32;99949.66;;;16.59;35.63
75447;BME280;64024;55.820;37.574;2024-02-14T10:47:00;99959.78;;;16.57;35.88
75447;BME280;64024;55.820;37.574;2024-02-14T10:49:29;99945.78;;;16.55;35.81
75447;BME280;64024;55.820;37.574;2024-02-14T10:51:56;99956.97;;;16.52;36.15
75447;BME280;64024;55.820;37.574;2024-02-14T10:54:26;99948.31;;;16.50;36.04
75447;BME280;64024;55.820;37.574;2024-02-14T10:56:53;99953.13;;;16.48;36.33
75447;BME280;64024;55.820;37.574;2024-02-14T10:59:24;99951.69;;;16.45;36.41
75447;BME280;64024;55.820;37.574;2024-02-14T11:01:50;99955.69;;;16.54;36.23
75447;BME280;64024;55.820;37.574;2024-02-14T11:04:17;99950.44;;;16.48;36.19
75447;BME280;64024;55.820;37.574;2024-02-14T11:06:47;99947.63;;;16.43;36.27
75447;BME280;64024;55.820;37.574;2024-02-14T11:09:13;99944.56;;;16.39;36.33
75447;BME280;64024;55.820;37.574;2024-02-14T11:11:42;99961.13;;;16.36;36.45
75447;BME280;64024;55.820;37.574;2024-02-14T11:14:09;99956.19;;;16.33;36.23
75447;BME280;64024;55.820;37.574;2024-02-14T11:16:37;99958.31;;;16.31;36.37
75447;BME280;64024;55.820;37.574;2024-02-14T11:19:09;99958.81;;;16.39;36.51
75447;BME280;64024;55.820;37.574;2024-02-14T11:21:45;99962.19;;;16.35;36.38
75447;BME280;64024;55.820;37.574;2024-02-14T11:24:13;99959.38;;;16.30;36.79
75447;BME280;64024;55.820;37.574;2024-02-14T11:26:49;99957.13;;;16.27;37.41
75447;BME280;64024;55.820;37.574;2024-02-14T11:29:19;99955.50;;;16.26;37.41
75447;BME280;64024;55.820;37.574;2024-02-14T11:31:45;99958.19;;;16.26;37.21
75447;BME280;64024;55.820;37.574;2024-02-14T11:34:14;99959.00;;;16.26;37.63
75447;BME280;64024;55.820;37.574;2024-02-14T11:36:44;99959.19;;;16.25;37.83
75447;BME280;64024;55.820;37.574;2024-02-14T11:39:11;99959.00;;;16.26;37.79
75447;BME280;64024;55.820;37.574;2024-02-14T11:41:39;99952.81;;;16.26;37.68
75447;BME280;64024;55.820;37.574;2024-02-14T11:44:07;99952.56;;;16.27;37.83
75447;BME280;64024;55.820;37.574;2024-02-14T11:46:36;99956.31;;;16.26;37.83
75447;BME280;64024;55.820;37.574;2024-02-14T11:49:03;99956.31;;;16.26;37.62
75447;BME280;64024;55.820;37.574;2024-02-14T11:51:30;99948.03;;;16.28;37.78
75447;BME280;64024;55.820;37.574;2024-02-14T11:53:59;99950.72;;;16.28;38.02
75447;BME280;64024;55.820;37.574;2024-02-14T11:56:36;99955.03;;;16.29;38.16
75447;BME280;64024;55.820;37.574;2024-02-14T11:59:08;99953.38;;;16.28;37.91
75447;BME280;64024;55.820;37.574;2024-02-14T12:01:44;99950.47;;;16.29;37.86
75447;BME280;64024;55.820;37.574;2024-02-14T12:04:12;99949.66;;;16.29;37.74
75447;BME280;64024;55.820;37.574;2024-02-14T12:06:39;99948.03;;;16.28;37.83
75447;BME280;64024;55.820;37.574;2024-02-14T12:09:07;99955.03;;;16.29;37.65
75447;BME280;64024;55.820;37.574;2024-02-14T12:11:36;99951.53;;;16.28;38.47
75447;BME280;64024;55.820;37.574;2024-02-14T12:14:06;99960.38;;;16.29;38.00
75447;BME280;64024;55.820;37.574;2024-02-14T12:16:36;99958.53;;;16.29;37.85
75447;BME280;64024;55.820;37.574;2024-02-14T12:19:07;99956.06;;;16.28;37.94
75447;BME280;64024;55.820;37.574;2024-02-14T12:21:39;99963.31;;;16.27;37.88
75447;BME280;64024;55.820;37.574;2024-02-14T12:24:08;99952.81;;;16.26;37.86
75447;BME280;64024;55.820;37.574;2024-02-14T12:26:37;99947.66;;;16.24;37.78
75447;BME280;64024;55.820;37.574;2024-02-14T12:29:04;99951.41;;;16.23;37.71
75447;BME280;64024;55.820;37.574;2024-02-14T12:31:32;99951.84;;;16.20;38.00
75447;BME280;64024;55.820;37.574;2024-02-14T12:33:58;99953.94;;;16.18;37.97
75447;BME280;64024;55.820;37.574;2024-02-14T12:36:31;99958.94;;;16.14;38.42
75447;BME280;64024;55.820;37.574;2024-02-14T12:39:01;99957.53;;;16.12;38.65
75447;BME280;64024;55.820;37.574;2024-02-14T12:41:27;99958.03;;;16.21;38.57
75447;BME280;64024;55.820;37.574;2024-02-14T12:43:55;99955.44;;;16.14;38.62
75447;BME280;64024;55.820;37.574;2024-02-14T12:46:21;99957.38;;;16.07;38.82
75447;BME280;64024;55.820;37.574;2024-02-14T12:48:47;99960.50;;;16.04;38.97
75447;BME280;64024;55.820;37.574;2024-02-14T12:51:14;99957.47;;;16.00;39.02
75447;BME280;64024;55.820;37.574;2024-02-14T12:53:40;99962.47;;;15.97;39.32
75447;BME280;64024;55.820;37.574;2024-02-14T12:56:06;99956.75;;;15.93;39.64